createdAt,value
2023-05-23T00:02:55.489Z,10.73
2023-05-23T00:07:58.128Z,10.15
2023-05-23T00:13:00.724Z,10.88
2023-05-23T00:18:03.545Z,9.88
2023-05-23T00:23:06.185Z,10.75
2023-05-23T00:28:09.200Z,10.35
2023-05-23T00:33:14.535Z,10.52
2023-05-23T00:38:17.722Z,10.15
2023-05-23T00:43:22.719Z,10.82
2023-05-23T00:48:26.365Z,9.98
2023-05-23T00:53:29.174Z,10.27
2023-05-23T00:58:32.235Z,10.77
2023-05-23T01:03:34.944Z,10.48
2023-05-23T01:08:38.147Z,10.48
2023-05-23T01:13:47.912Z,10.50
2023-05-23T01:18:59.240Z,11.32
2023-05-23T01:24:36.575Z,9.52
2023-05-23T01:29:47.982Z,10.80
2023-05-23T01:34:53.479Z,9.10
2023-05-23T01:39:56.205Z,9.30
2023-05-23T01:44:59.679Z,9.38
2023-05-23T01:50:03.094Z,10.10
2023-05-23T01:55:09.877Z,9.80
2023-05-23T02:00:15.549Z,9.82
2023-05-23T02:05:18.261Z,10.10
2023-05-23T02:10:21.553Z,10.90
2023-05-23T02:15:24.367Z,10.02
2023-05-23T02:20:27.079Z,10.60
2023-05-23T02:25:29.804Z,8.90
2023-05-23T02:30:32.622Z,8.55
2023-05-23T02:35:35.376Z,7.72
2023-05-23T02:40:37.982Z,7.10
2023-05-23T02:45:40.849Z,7.93
2023-05-23T02:50:44.328Z,8.63
2023-05-23T02:55:47.111Z,7.50
2023-05-23T03:00:49.729Z,7.13
2023-05-23T03:05:52.516Z,8.35
2023-05-23T03:10:55.191Z,8.13
2023-05-23T03:15:57.861Z,7.90
2023-05-23T03:21:00.628Z,9.07
2023-05-23T03:26:04.055Z,9.05
2023-05-23T03:31:06.789Z,9.65
2023-05-23T03:36:09.541Z,9.45
2023-05-23T03:41:12.211Z,11.43
2023-05-23T03:46:15.743Z,10.20
2023-05-23T03:51:18.642Z,9.73
2023-05-23T03:56:21.606Z,10.52
2023-05-23T04:01:25.132Z,10.02
2023-05-23T04:06:31.359Z,9.90
2023-05-23T04:11:34.285Z,9.93
2023-05-23T04:16:38.433Z,10.25
2023-05-23T04:21:41.356Z,14.25
2023-05-23T04:26:46.119Z,10.05
2023-05-23T04:31:48.989Z,11.45
2023-05-23T04:36:53.960Z,10.13
2023-05-23T04:41:57.966Z,10.02
2023-05-23T04:47:25.020Z,10.88
2023-05-23T04:52:37.204Z,11.07
2023-05-23T04:57:40.302Z,10.13
2023-05-23T05:02:43.704Z,9.82
2023-05-23T05:07:46.463Z,8.85
2023-05-23T05:12:52.039Z,12.45
2023-05-23T05:17:55.391Z,8.45
2023-05-23T05:22:58.651Z,7.38
2023-05-23T05:28:08.592Z,17.50
2023-05-23T05:33:19.720Z,9.75
2023-05-23T05:38:22.757Z,6.53
2023-05-23T05:43:26.836Z,8.00
2023-05-23T05:48:29.851Z,6.95
2023-05-23T05:53:37.114Z,6.22
2023-05-23T05:58:40.693Z,6.40
2023-05-23T06:03:48.696Z,7.90
2023-05-23T06:08:51.501Z,6.22
2023-05-23T06:13:54.298Z,5.63
2023-05-23T06:18:57.229Z,5.78
2023-05-23T06:24:03.662Z,7.05
2023-05-23T06:29:06.677Z,5.90
2023-05-23T06:34:10.419Z,6.43
2023-05-23T06:39:13.024Z,6.32
2023-05-23T06:44:15.852Z,5.85
2023-05-23T06:49:18.500Z,6.28
2023-05-23T06:54:21.520Z,5.90
2023-05-23T06:59:25.269Z,5.00
2023-05-23T07:04:28.433Z,5.45
2023-05-23T07:09:35.710Z,5.18
2023-05-23T07:14:45.040Z,5.15
2023-05-23T07:19:47.740Z,4.70
2023-05-23T07:24:50.576Z,4.53
2023-05-23T07:29:53.976Z,3.97
2023-05-23T07:34:56.653Z,4.30
2023-05-23T07:40:01.430Z,3.70
2023-05-23T07:45:06.225Z,3.75
2023-05-23T07:50:09.689Z,3.60
2023-05-23T07:55:13.641Z,3.70
2023-05-23T08:00:16.949Z,2.85
2023-05-23T08:05:20.001Z,2.75
2023-05-23T08:10:28.373Z,3.17
2023-05-23T08:15:37.792Z,2.80
2023-05-23T08:20:49.418Z,3.22
2023-05-23T08:25:53.231Z,3.13
2023-05-23T08:30:57.406Z,3.50
2023-05-23T08:36:01.328Z,3.30
2023-05-23T08:41:09.856Z,3.20
2023-05-23T08:46:14.637Z,2.95
2023-05-23T08:51:20.204Z,2.90
2023-05-23T08:56:28.474Z,4.43
2023-05-23T09:01:34.145Z,6.13
2023-05-23T09:06:39.364Z,3.78
2023-05-23T09:11:46.105Z,4.05
2023-05-23T09:16:50.443Z,3.80
2023-05-23T09:21:58.071Z,4.43
2023-05-23T09:27:05.987Z,4.20
2023-05-23T09:32:20.414Z,5.13
2023-05-23T09:37:34.094Z,4.85
2023-05-23T09:42:45.576Z,4.90
2023-05-23T09:47:52.979Z,5.47
2023-05-23T09:52:55.786Z,4.82
2023-05-23T09:58:00.184Z,4.25
2023-05-23T10:03:14.857Z,4.05
2023-05-23T10:08:30.272Z,4.78
2023-05-23T10:13:33.522Z,3.47
2023-05-23T10:18:43.958Z,2.67
2023-05-23T10:23:48.285Z,2.87
2023-05-23T10:28:52.181Z,2.97
2023-05-23T10:34:05.074Z,4.25
2023-05-23T10:39:36.996Z,4.97
2023-05-23T10:44:39.673Z,5.07
2023-05-23T10:49:47.745Z,5.63
2023-05-23T11:07:35.578Z,5.70
2023-05-23T11:12:42.869Z,5.80
2023-05-23T11:17:56.745Z,5.93
2023-05-23T11:23:07.633Z,6.32
2023-05-23T11:28:11.825Z,7.47
2023-05-23T11:33:17.202Z,6.95
2023-05-23T11:38:20.168Z,10.75
2023-05-23T11:43:22.909Z,6.78
2023-05-23T11:48:25.579Z,7.15
2023-05-23T11:53:28.736Z,7.43
2023-05-23T11:58:34.242Z,7.25
2023-05-23T12:03:51.483Z,7.07
2023-05-23T12:08:54.496Z,8.63
2023-05-23T12:13:57.927Z,8.75
2023-05-23T12:19:02.286Z,11.10
2023-05-23T12:24:17.405Z,11.05
2023-05-23T12:29:22.426Z,11.57
2023-05-23T12:34:25.283Z,11.30
2023-05-23T12:39:29.314Z,11.50
2023-05-23T12:44:32.282Z,12.10
2023-05-23T12:49:34.930Z,12.88
2023-05-23T12:54:37.615Z,12.02
2023-05-23T12:59:40.357Z,11.23
2023-05-23T13:04:43.066Z,9.85
2023-05-23T13:09:47.534Z,10.93
2023-05-23T13:14:51.599Z,9.98
2023-05-23T13:19:54.397Z,13.25
2023-05-23T13:24:57.051Z,13.75
2023-05-23T13:29:59.907Z,11.55
2023-05-23T13:35:02.630Z,12.20
2023-05-23T13:40:08.201Z,10.18
2023-05-23T13:45:11.236Z,10.18
2023-05-23T13:50:14.014Z,10.98
2023-05-23T13:55:17.527Z,9.77
2023-05-23T14:00:20.455Z,11.48
2023-05-23T14:05:23.600Z,10.52
2023-05-23T14:10:26.415Z,10.40
2023-05-23T14:15:30.132Z,11.45
2023-05-23T14:20:33.781Z,10.50
2023-05-23T14:25:36.552Z,12.20
2023-05-23T14:30:39.450Z,11.27
2023-05-23T15:16:00.751Z,9.73
2023-05-23T15:21:03.561Z,10.50
2023-05-23T15:26:06.279Z,10.77
2023-05-23T15:31:09.095Z,10.57
2023-05-23T15:36:13.314Z,10.70
2023-05-23T15:41:16.938Z,11.05
2023-05-23T15:46:19.779Z,11.38
2023-05-23T15:51:22.462Z,10.65
2023-05-23T15:56:25.152Z,12.13
2023-05-23T16:01:27.875Z,13.10
2023-05-23T16:06:31.719Z,12.65
2023-05-23T16:11:34.326Z,14.32
2023-05-23T16:16:37.008Z,16.05
2023-05-23T16:21:39.844Z,15.02
2023-05-23T16:26:42.621Z,14.15
2023-05-23T16:31:45.300Z,14.48
2023-05-23T16:36:47.989Z,14.50
2023-05-23T16:41:50.678Z,14.88
2023-05-23T16:46:53.355Z,14.80
2023-05-23T16:51:56.010Z,14.43
2023-05-23T16:57:01.756Z,14.65
2023-05-23T17:02:04.970Z,14.40
2023-05-23T17:07:09.398Z,14.55
2023-05-23T17:12:13.289Z,15.52
2023-05-23T17:17:18.650Z,16.33
2023-05-23T17:22:21.770Z,20.35
2023-05-23T17:27:24.364Z,21.75
2023-05-23T17:32:28.075Z,20.67
2023-05-23T17:37:31.026Z,20.70
2023-05-23T17:42:33.657Z,18.92
2023-05-23T17:47:36.392Z,18.85
2023-05-23T17:52:39.182Z,17.25
2023-05-23T17:57:41.845Z,15.68
2023-05-23T18:02:44.871Z,17.20
2023-05-23T18:07:47.839Z,17.60
2023-05-23T18:12:50.880Z,18.08
2023-05-23T18:17:55.606Z,17.90
2023-05-23T18:22:58.751Z,18.33
2023-05-23T18:28:02.297Z,17.65
2023-05-23T18:33:05.088Z,16.50
2023-05-23T18:38:07.854Z,16.17
2023-05-23T18:43:10.700Z,14.75
2023-05-23T18:48:13.380Z,14.38
2023-05-23T18:53:16.179Z,12.70
2023-05-23T18:58:19.046Z,12.13
2023-05-23T19:03:22.070Z,11.95
2023-05-23T19:08:24.721Z,12.00
2023-05-23T19:13:27.792Z,10.55
2023-05-23T19:18:30.563Z,10.93
2023-05-23T19:23:34.173Z,10.85
2023-05-23T19:28:37.150Z,10.27
2023-05-23T19:33:39.843Z,10.35
2023-05-23T19:38:42.514Z,9.63
2023-05-23T19:43:45.362Z,8.38
2023-05-23T19:48:48.792Z,7.30
2023-05-23T19:53:52.204Z,7.57
2023-05-23T19:58:55.021Z,6.70
2023-05-23T20:03:57.686Z,7.57
2023-05-23T20:09:00.311Z,7.40
2023-05-23T20:14:02.973Z,7.28
2023-05-23T20:19:06.587Z,7.88
2023-05-23T20:24:09.436Z,7.65
2023-05-23T20:29:12.301Z,7.20
2023-05-23T20:34:15.011Z,7.13
2023-05-23T20:39:20.084Z,7.57
2023-05-23T20:44:23.976Z,7.68
2023-05-23T20:49:27.791Z,7.40
2023-05-23T20:54:30.498Z,7.15
2023-05-23T20:59:33.247Z,7.80
2023-05-23T21:04:35.839Z,7.32
2023-05-23T21:09:38.617Z,7.05
2023-05-23T21:14:44.690Z,7.38
2023-05-23T21:19:47.366Z,7.25
2023-05-23T21:24:50.600Z,8.15
2023-05-23T21:29:53.171Z,8.57
2023-05-23T21:34:56.540Z,7.13
2023-05-23T21:39:59.055Z,7.55
2023-05-23T21:45:01.768Z,8.10
2023-05-23T21:50:08.242Z,7.95
2023-05-23T21:55:11.146Z,8.15
2023-05-23T22:00:14.628Z,7.97
2023-05-23T22:05:17.295Z,7.90
2023-05-23T22:10:20.114Z,8.88
2023-05-23T22:15:23.802Z,7.65
2023-05-23T22:20:27.972Z,8.15
2023-05-23T22:25:32.727Z,8.18
2023-05-23T22:30:35.734Z,9.63
2023-05-23T22:35:39.811Z,8.20
2023-05-23T22:40:42.770Z,8.25
2023-05-23T22:45:45.551Z,8.73
2023-05-23T22:50:48.198Z,8.40
2023-05-23T22:55:51.067Z,8.05
2023-05-23T23:00:53.870Z,8.80
2023-05-23T23:05:57.529Z,9.15
2023-05-23T23:11:00.164Z,8.25
2023-05-23T23:16:02.776Z,9.77
2023-05-23T23:21:06.014Z,9.55
2023-05-23T23:26:08.616Z,9.23
2023-05-23T23:31:11.381Z,14.05
2023-05-23T23:36:14.459Z,12.10
2023-05-23T23:41:17.121Z,9.95
2023-05-23T23:46:21.066Z,9.52
2023-05-23T23:51:23.809Z,9.88
2023-05-23T23:56:26.680Z,8.93
